Time;durP1;ratioP1;P1;durP2;ratioP2;P2;SDS_P1;SDS_P2;PMS_P1;PMS_P2;Temp;Humidity;BMP_temperature;BMP_pressure;BME280_temperature;BME280_humidity;BME280_pressure;Samples;Min_cycle;Max_cycle;Signal;HPM_P1;HPM_P2
2023/10/23 00:00:21;;;;;;;9.43;7.57;;;;;;;8.78;100.00;95486.31;6277518;22;20000;-66
2023/10/23 00:02:46;;;;;;;9.02;6.93;;;;;;;8.76;100.00;95498.75;6277619;22;20391;-66
2023/10/23 00:05:12;;;;;;;9.50;6.47;;;;;;;8.74;100.00;95491.03;6277704;22;20452;-66
2023/10/23 00:07:37;;;;;;;8.35;6.68;;;;;;;8.72;100.00;95488.50;6277542;22;19996;-66
2023/10/23 00:10:03;;;;;;;8.18;6.90;;;;;;;8.78;100.00;95476.66;6277062;22;20055;-66
2023/10/23 00:12:28;;;;;;;8.63;6.82;;;;;;;8.78;100.00;95475.81;6275783;22;20057;-66
2023/10/23 00:14:54;;;;;;;7.20;5.35;;;;;;;8.78;100.00;95474.03;6277278;22;20008;-66
2023/10/23 00:17:22;;;;;;;6.35;5.75;;;;;;;8.80;100.00;95468.63;6275040;22;20324;-66
2023/10/23 00:19:48;;;;;;;7.75;7.05;;;;;;;8.83;100.00;95450.81;6277113;22;19999;-66
2023/10/23 00:22:13;;;;;;;7.38;6.65;;;;;;;8.83;100.00;95445.56;6276878;22;20007;-66
2023/10/23 00:24:38;;;;;;;6.05;5.55;;;;;;;8.84;100.00;95452.47;6277630;22;20554;-66
2023/10/23 00:27:04;;;;;;;7.25;5.30;;;;;;;8.81;100.00;95452.75;6277455;22;20011;-67
2023/10/23 00:29:29;;;;;;;6.43;5.15;;;;;;;8.81;100.00;95452.75;6277297;22;20002;-66
2023/10/23 00:31:55;;;;;;;4.97;4.47;;;;;;;8.80;100.00;95448.47;6275531;22;20002;-66
2023/10/23 00:34:20;;;;;;;5.85;4.18;;;;;;;8.81;100.00;95451.91;6275171;22;20003;-66
2023/10/23 00:36:46;;;;;;;7.10;4.30;;;;;;;8.79;100.00;95452.06;6275349;22;19999;-66
2023/10/23 00:39:11;;;;;;;6.00;5.45;;;;;;;8.83;100.00;95447.34;6276058;22;20003;-66
2023/10/23 00:41:37;;;;;;;9.82;7.35;;;;;;;8.95;100.00;95446.25;6276203;22;20007;-66
2023/10/23 00:44:02;;;;;;;5.85;5.28;;;;;;;8.91;100.00;95446.66;6276638;22;20008;-66
2023/10/23 00:46:30;;;;;;;4.93;3.83;;;;;;;8.92;100.00;95456.19;6275657;22;20000;-66
2023/10/23 00:48:57;;;;;;;4.00;3.70;;;;;;;8.92;100.00;95453.56;6277401;22;20003;-66
2023/10/23 00:51:22;;;;;;;7.18;4.70;;;;;;;8.93;100.00;95455.22;6275556;22;20422;-66
2023/10/23 00:53:48;;;;;;;5.38;3.80;;;;;;;8.91;100.00;95467.66;6278382;22;20008;-67
2023/10/23 00:56:14;;;;;;;8.50;3.65;;;;;;;8.92;100.00;95474.56;6276049;22;20026;-66
2023/10/23 00:58:41;;;;;;;6.72;3.78;;;;;;;8.91;100.00;95476.38;6276996;22;20063;-66
2023/10/23 01:01:12;;;;;;;4.78;3.67;;;;;;;8.91;100.00;95499.16;6276802;22;20006;-66
2023/10/23 01:03:38;;;;;;;5.60;3.63;;;;;;;8.92;100.00;95506.09;6279385;22;20079;-66
2023/10/23 01:06:04;;;;;;;4.07;3.50;;;;;;;8.95;100.00;95492.69;6279527;22;19995;-66
2023/10/23 01:08:30;;;;;;;5.30;3.55;;;;;;;8.95;100.00;95485.66;6278555;22;19996;-66
2023/10/23 01:10:58;;;;;;;4.93;3.50;;;;;;;8.99;100.00;95483.59;6278067;22;20054;-66
2023/10/23 01:13:25;;;;;;;4.32;3.90;;;;;;;9.06;100.00;95462.81;6277180;22;20002;-66
2023/10/23 01:15:51;;;;;;;3.75;3.33;;;;;;;9.06;100.00;95442.66;6278549;22;20397;-66
2023/10/23 01:18:16;;;;;;;6.30;3.30;;;;;;;9.14;100.00;95445.41;6275517;22;20076;-67
2023/10/23 01:20:42;;;;;;;3.00;2.80;;;;;;;9.08;100.00;95453.84;6278462;22;20130;-66
2023/10/23 01:23:08;;;;;;;5.70;3.25;;;;;;;9.07;100.00;95446.13;6279029;22;20070;-66
2023/10/23 01:25:33;;;;;;;2.42;2.22;;;;;;;9.09;100.00;95421.38;6278649;22;20369;-66
2023/10/23 01:27:59;;;;;;;3.70;2.30;;;;;;;9.10;100.00;95423.03;6278481;22;20500;-67
2023/10/23 01:30:24;;;;;;;3.70;2.58;;;;;;;9.09;100.00;95416.13;6276916;22;20000;-66
2023/10/23 01:32:49;;;;;;;4.38;2.30;;;;;;;9.11;100.00;95413.38;6278693;22;20003;-66
2023/10/23 01:35:15;;;;;;;2.95;2.33;;;;;;;9.10;100.00;95412.53;6278331;22;20026;-66
2023/10/23 01:37:41;;;;;;;4.68;2.67;;;;;;;9.07;100.00;95417.25;6276635;22;20015;-66
2023/10/23 01:40:07;;;;;;;3.95;2.78;;;;;;;9.22;100.00;95420.28;6278188;22;20027;-66
2023/10/23 01:42:33;;;;;;;3.38;2.45;;;;;;;9.15;100.00;95415.56;6279098;22;20000;-66
2023/10/23 01:44:58;;;;;;;4.53;2.50;;;;;;;9.15;100.00;95406.88;6250376;22;20595;-66
2023/10/23 01:47:25;;;;;;;3.78;2.22;;;;;;;9.17;100.00;95397.88;6278208;22;20370;-66
2023/10/23 01:49:50;;;;;;;2.47;2.28;;;;;;;9.07;100.00;95391.00;6278517;22;20004;-66
2023/10/23 01:52:16;;;;;;;3.50;2.53;;;;;;;9.01;100.00;95390.56;6278190;22;20004;-66
2023/10/23 01:54:43;;;;;;;6.07;2.58;;;;;;;8.95;100.00;95375.38;6278455;22;20508;-66
2023/10/23 01:57:11;;;;;;;4.05;2.45;;;;;;;8.94;100.00;95371.09;6307525;22;20018;-66
2023/10/23 01:59:37;;;;;;;3.80;2.70;;;;;;;8.95;100.00;95367.50;6309329;22;20131;-66
2023/10/23 02:02:03;;;;;;;4.65;2.60;;;;;;;8.97;100.00;95364.75;6308755;22;20007;-66
2023/10/23 02:04:29;;;;;;;4.88;2.35;;;;;;;8.96;100.00;95361.28;6309211;22;20078;-66
2023/10/23 02:06:56;;;;;;;3.13;2.50;;;;;;;8.96;100.00;95358.66;6309288;22;19995;-66
2023/10/23 02:09:21;;;;;;;4.70;2.30;;;;;;;8.98;100.00;95366.41;6309030;22;20324;-66
2023/10/23 02:11:47;;;;;;;2.58;2.38;;;;;;;9.03;100.00;95366.78;6308739;22;20007;-66
2023/10/23 02:14:13;;;;;;;3.80;2.47;;;;;;;9.10;100.00;95367.06;6309057;22;20003;-66
2023/10/23 02:16:38;;;;;;;3.00;2.08;;;;;;;9.07;100.00;95367.34;6281599;22;19999;-66
2023/10/23 02:19:04;;;;;;;4.15;2.50;;;;;;;9.03;100.00;95364.16;6308959;22;20010;-66
2023/10/23 02:21:29;;;;;;;3.97;2.55;;;;;;;9.03;100.00;95364.16;6308808;22;20002;-66
2023/10/23 02:23:55;;;;;;;2.67;2.30;;;;;;;9.03;100.00;95364.16;6309076;22;20003;-66
2023/10/23 02:26:21;;;;;;;4.80;2.40;;;;;;;9.03;100.00;95364.97;6281677;22;19999;-66
2023/10/23 02:28:46;;;;;;;2.78;2.22;;;;;;;9.03;100.00;95361.53;6308967;22;20343;-66
2023/10/23 02:31:12;;;;;;;5.30;2.28;;;;;;;9.07;100.00;95356.84;6309197;22;19999;-66
2023/10/23 02:33:37;;;;;;;2.85;2.20;;;;;;;9.07;100.00;95359.47;6281492;22;19999;-66
2023/10/23 02:36:03;;;;;;;2.30;2.00;;;;;;;9.07;100.00;95370.78;6308648;22;20000;-66
2023/10/23 02:38:28;;;;;;;2.75;2.03;;;;;;;9.05;100.00;95367.47;6308458;22;20000;-66
2023/10/23 02:40:54;;;;;;;3.70;2.15;;;;;;;9.03;100.00;95366.78;6307254;22;20693;-66
2023/10/23 02:43:20;;;;;;;2.13;1.90;;;;;;;9.01;100.00;95377.44;6308464;22;19995;-66
2023/10/23 02:45:46;;;;;;;2.40;2.05;;;;;;;9.04;100.00;95376.31;6280463;22;20033;-66
2023/10/23 02:48:12;;;;;;;3.17;1.80;;;;;;;9.06;100.00;95363.88;6308762;22;20334;-66
2023/10/23 02:50:38;;;;;;;2.38;2.08;;;;;;;9.10;100.00;95380.19;6308549;22;20041;-66
2023/10/23 02:53:05;;;;;;;2.45;1.92;;;;;;;9.13;100.00;95359.72;6308836;22;20413;-66
2023/10/23 02:55:30;;;;;;;2.35;2.15;;;;;;;9.10;100.00;95346.06;6281668;22;20409;-66
2023/10/23 02:57:56;;;;;;;2.50;1.85;;;;;;;9.08;100.00;95337.50;6308539;22;20007;-66
2023/10/23 03:00:22;;;;;;;2.42;2.00;;;;;;;9.10;100.00;95338.19;6281515;22;19999;-66
2023/10/23 03:02:48;;;;;;;2.30;2.10;;;;;;;9.07;100.00;95336.66;6308885;22;20034;-67
2023/10/23 03:05:14;;;;;;;3.97;1.92;;;;;;;9.09;100.00;95336.53;6309275;22;20006;-66
2023/10/23 03:07:40;;;;;;;2.35;2.13;;;;;;;9.07;100.00;95336.66;6308970;22;19995;-66
2023/10/23 03:10:06;;;;;;;3.78;2.03;;;;;;;9.08;100.00;95335.69;6307881;22;20332;-66
2023/10/23 03:12:31;;;;;;;4.55;1.70;;;;;;;9.07;100.00;95338.47;6308663;22;20006;-66
2023/10/23 03:14:57;;;;;;;2.10;2.00;;;;;;;9.03;100.00;95343.16;6308144;22;20002;-66
2023/10/23 03:17:22;;;;;;;1.95;1.80;;;;;;;9.01;100.00;95339.84;6308335;22;20737;-66
2023/10/23 03:19:48;;;;;;;2.45;1.73;;;;;;;9.02;100.00;95333.63;6307975;22;20057;-66
2023/10/23 03:22:13;;;;;;;6.70;2.10;;;;;;;9.02;100.00;95326.56;6280498;22;20003;-66
2023/10/23 03:24:39;;;;;;;2.28;1.80;;;;;;;9.05;100.00;95320.22;6308705;22;20057;-66
2023/10/23 03:27:04;;;;;;;4.30;1.95;;;;;;;9.03;100.00;95320.34;6309047;22;20003;-66
2023/10/23 03:29:30;;;;;;;3.45;1.90;;;;;;;9.03;100.00;95316.91;6281006;22;20039;-66
2023/10/23 03:31:56;;;;;;;2.47;2.20;;;;;;;9.06;100.00;95313.16;6308483;22;20078;-66
2023/10/23 03:34:24;;;;;;;1.67;1.58;;;;;;;9.09;100.00;95311.06;6308574;22;20463;-67
2023/10/23 03:36:49;;;;;;;2.75;2.13;;;;;;;9.07;100.00;95299.06;6280645;22;20001;-65
2023/10/23 03:39:15;;;;;;;1.90;1.80;;;;;;;9.09;100.00;95300.56;6308692;22;20075;-64
2023/10/23 03:41:42;;;;;;;2.65;1.90;;;;;;;9.12;100.00;95292.41;6308101;22;19995;-65
2023/10/23 03:44:08;;;;;;;2.22;2.00;;;;;;;9.11;100.00;95290.75;6307308;22;20038;-67
2023/10/23 03:46:33;;;;;;;3.65;2.10;;;;;;;9.09;100.00;95284.81;6281276;22;20025;-65
2023/10/23 03:48:58;;;;;;;1.73;1.63;;;;;;;9.12;100.00;95294.22;6308723;22;19999;-67
2023/10/23 03:51:24;;;;;;;4.63;1.90;;;;;;;9.11;100.00;95301.25;6309015;22;20003;-64
2023/10/23 03:53:49;;;;;;;4.63;2.25;;;;;;;9.13;100.00;95296.69;6281220;22;20029;-65
2023/10/23 03:56:15;;;;;;;2.50;2.30;;;;;;;9.13;100.00;95288.00;6275890;22;20019;-65
2023/10/23 03:58:40;;;;;;;2.30;2.10;;;;;;;9.13;100.00;95296.69;6275362;22;20050;-65
2023/10/23 04:01:05;;;;;;;4.70;1.55;;;;;;;9.14;100.00;95282.56;6277712;22;20007;-65
2023/10/23 04:03:31;;;;;;;3.08;1.60;;;;;;;9.14;100.00;95272.06;6277262;22;20044;-65
2023/10/23 04:05:56;;;;;;;1.80;1.70;;;;;;;9.17;100.00;95268.34;6276627;22;19992;-65
2023/10/23 04:08:22;;;;;;;3.60;1.83;;;;;;;9.18;100.00;95262.13;6277274;22;19995;-65
2023/10/23 04:10:48;;;;;;;2.38;1.83;;;;;;;9.15;100.00;95265.84;6275258;22;20025;-65
2023/10/23 04:13:17;;;;;;;1.63;1.52;;;;;;;9.12;100.00;95262.69;6277888;22;20003;-65
2023/10/23 04:15:52;;;;;;;3.03;2.13;;;;;;;9.11;100.00;95271.56;6276437;22;20002;-65
2023/10/23 04:18:17;;;;;;;7.25;2.35;;;;;;;9.06;100.00;95269.34;6277405;22;20003;-67
2023/10/23 04:20:43;;;;;;;2.13;1.85;;;;;;;9.04;100.00;95260.78;6277796;22;20083;-67
2023/10/23 04:23:08;;;;;;;8.15;3.80;;;;;;;9.00;100.00;95257.59;6276009;22;20071;-65
2023/10/23 04:25:33;;;;;;;3.55;2.28;;;;;;;8.97;100.00;95254.47;6276026;22;20372;-65
2023/10/23 04:27:59;;;;;;;5.55;2.03;;;;;;;8.94;100.00;95265.22;6279056;22;20003;-65
2023/10/23 04:30:24;;;;;;;2.75;2.10;;;;;;;8.94;100.00;95276.56;6279053;22;20437;-65
2023/10/23 04:32:50;;;;;;;8.43;2.20;;;;;;;8.96;100.00;95268.56;6276633;22;21199;-65
2023/10/23 04:35:15;;;;;;;3.22;2.10;;;;;;;8.95;100.00;95259.00;6278784;22;20000;-65
2023/10/23 04:37:40;;;;;;;2.78;2.00;;;;;;;8.94;100.00;95271.31;6279761;22;20006;-65
2023/10/23 04:40:07;;;;;;;3.97;2.33;;;;;;;8.97;100.00;95278.91;6279160;22;20023;-65
2023/10/23 04:42:32;;;;;;;3.72;2.20;;;;;;;9.00;100.00;95275.19;6252406;22;20034;-66
2023/10/23 04:44:57;;;;;;;5.80;4.25;;;;;;;8.99;100.00;95273.53;6278929;22;20000;-65
2023/10/23 04:47:23;;;;;;;5.53;3.60;;;;;;;8.99;100.00;95263.03;6279506;22;20007;-66
2023/10/23 04:49:48;;;;;;;3.10;2.63;;;;;;;8.98;100.00;95272.69;6278433;22;20029;-65
2023/10/23 04:52:13;;;;;;;4.85;2.42;;;;;;;8.98;100.00;95271.88;6278417;22;20002;-66
2023/10/23 04:54:39;;;;;;;2.90;2.10;;;;;;;9.01;100.00;95272.41;6278973;22;20099;-65
2023/10/23 04:57:04;;;;;;;2.10;2.00;;;;;;;9.04;100.00;95258.16;6277269;22;20015;-65
2023/10/23 04:59:33;;;;;;;3.08;2.20;;;;;;;9.05;100.00;95262.44;6279533;22;20024;-66
2023/10/23 05:01:58;;;;;;;5.78;2.50;;;;;;;9.07;100.00;95259.69;6279341;22;20048;-65
2023/10/23 05:04:23;;;;;;;2.35;2.15;;;;;;;9.01;100.00;95251.38;6279365;22;20074;-65
2023/10/23 05:06:49;;;;;;;2.42;2.17;;;;;;;8.99;100.00;95240.19;6279131;22;20004;-65
2023/10/23 05:09:15;;;;;;;3.45;2.30;;;;;;;8.98;100.00;95238.56;6279258;22;19998;-65
2023/10/23 05:11:40;;;;;;;8.52;2.63;;;;;;;9.01;100.00;95234.81;6278670;22;19992;-66
2023/10/23 05:14:06;;;;;;;2.85;2.20;;;;;;;9.01;100.00;95234.81;6278860;22;20053;-66
2023/10/23 05:16:31;;;;;;;2.72;2.33;;;;;;;9.01;100.00;95219.88;6277348;22;20000;-66
2023/10/23 05:18:57;;;;;;;4.22;2.42;;;;;;;9.05;100.00;95219.59;6279009;22;20023;-66
2023/10/23 05:21:22;;;;;;;2.50;2.30;;;;;;;9.09;100.00;95231.47;6278949;22;19999;-66
2023/10/23 05:23:47;;;;;;;2.60;2.40;;;;;;;9.07;100.00;95228.97;6278544;22;20000;-66
2023/10/23 05:26:14;;;;;;;3.47;2.08;;;;;;;9.05;100.00;95224.84;6278669;22;20003;-66
2023/10/23 05:28:41;;;;;;;2.20;2.03;;;;;;;9.05;100.00;95230.94;6279003;22;20006;-66
2023/10/23 05:31:08;;;;;;;2.72;2.13;;;;;;;9.05;100.00;95244.06;6278872;22;20003;-66
2023/10/23 05:33:34;;;;;;;3.95;2.13;;;;;;;9.06;100.00;95227.34;6278476;22;20027;-66
2023/10/23 05:36:04;;;;;;;4.47;3.80;;;;;;;9.06;100.00;95211.56;6279399;22;20002;-66
2023/10/23 05:38:29;;;;;;;2.85;2.50;;;;;;;9.09;100.00;95215.72;6278367;22;20508;-66
2023/10/23 05:40:56;;;;;;;3.78;3.47;;;;;;;9.06;100.00;95197.59;6277120;22;20030;-65
2023/10/23 05:43:22;;;;;;;4.20;2.85;;;;;;;9.02;100.00;95204.97;6278583;22;20000;-65
2023/10/23 05:45:47;;;;;;;3.47;3.20;;;;;;;9.00;100.00;95196.41;6276068;22;20008;-65
2023/10/23 05:48:12;;;;;;;3.47;2.70;;;;;;;8.98;100.00;95196.53;6278817;22;19995;-65
2023/10/23 05:50:38;;;;;;;5.20;2.67;;;;;;;8.97;100.00;95201.94;6277396;22;20000;-65
2023/10/23 05:53:03;;;;;;;3.50;2.45;;;;;;;8.98;100.00;95199.16;6278986;22;20082;-65
2023/10/23 05:55:33;;;;;;;4.50;2.65;;;;;;;9.00;100.00;95206.91;6286486;22;20019;-65
2023/10/23 05:57:59;;;;;;;3.22;2.72;;;;;;;8.99;100.00;95205.25;6309568;22;20010;-65
2023/10/23 06:00:24;;;;;;;3.80;2.40;;;;;;;9.00;100.00;95193.78;6282053;22;20537;-65
2023/10/23 06:02:50;;;;;;;5.75;3.60;;;;;;;9.00;100.00;95193.78;6309255;22;20070;-65
2023/10/23 06:05:15;;;;;;;3.25;2.95;;;;;;;8.99;100.00;95189.50;6309065;22;20003;-65
2023/10/23 06:07:41;;;;;;;4.90;2.58;;;;;;;8.96;100.00;95179.28;6309586;22;20003;-65
2023/10/23 06:10:06;;;;;;;5.40;2.97;;;;;;;8.91;100.00;95182.34;6308160;22;20034;-65
2023/10/23 06:12:32;;;;;;;2.92;2.70;;;;;;;8.89;100.00;95182.47;6308164;22;20086;-65
2023/10/23 06:14:58;;;;;;;6.22;2.70;;;;;;;8.85;100.00;95175.88;6307991;22;20061;-65
2023/10/23 06:17:24;;;;;;;4.70;2.70;;;;;;;8.83;100.00;95183.06;6308381;22;20068;-65
2023/10/23 06:19:49;;;;;;;4.90;3.17;;;;;;;8.91;100.00;95182.34;6281741;22;20007;-65
2023/10/23 06:22:15;;;;;;;4.70;3.95;;;;;;;8.86;100.00;95184.59;6309213;22;20006;-65
2023/10/23 06:24:40;;;;;;;3.30;2.70;;;;;;;8.83;100.00;95180.44;6309311;22;20075;-65
2023/10/23 06:27:06;;;;;;;4.72;3.22;;;;;;;8.83;100.00;95184.84;6309235;22;20003;-66
2023/10/23 06:29:31;;;;;;;3.75;3.03;;;;;;;8.83;100.00;95193.56;6256420;22;20367;-65
2023/10/23 06:31:57;;;;;;;6.15;3.00;;;;;;;8.84;100.00;95186.50;6281528;22;20555;-65
2023/10/23 06:34:22;;;;;;;3.75;3.50;;;;;;;8.86;100.00;95185.38;6281272;22;20010;-65
2023/10/23 06:36:48;;;;;;;7.22;5.15;;;;;;;8.84;100.00;95187.34;6308756;22;20078;-65
2023/10/23 06:39:13;;;;;;;5.97;3.88;;;;;;;8.81;100.00;95185.00;6307874;22;20432;-64
2023/10/23 06:41:39;;;;;;;9.90;8.35;;;;;;;8.83;100.00;95188.31;6281576;22;19995;-64
2023/10/23 06:44:04;;;;;;;9.43;5.63;;;;;;;8.83;100.00;95179.59;6309061;22;20049;-65
2023/10/23 06:46:30;;;;;;;6.57;3.15;;;;;;;8.87;100.00;95173.91;6281197;22;19999;-65
2023/10/23 06:48:55;;;;;;;4.50;3.25;;;;;;;8.91;100.00;95187.59;6281242;22;20025;-65
2023/10/23 06:51:20;;;;;;;4.53;3.63;;;;;;;8.96;100.00;95200.31;6308443;22;20074;-65
2023/10/23 06:53:46;;;;;;;4.75;4.15;;;;;;;9.00;100.00;95202.47;6281237;22;20003;-65
2023/10/23 06:56:11;;;;;;;4.47;3.30;;;;;;;9.13;100.00;95201.31;6307277;22;20015;-65
2023/10/23 06:58:37;;;;;;;4.32;3.00;;;;;;;9.20;100.00;95201.59;6307909;22;20095;-65
2023/10/23 07:01:07;;;;;;;5.72;3.67;;;;;;;9.29;100.00;95209.41;6307889;22;20003;-65
2023/10/23 07:03:33;;;;;;;3.83;3.30;;;;;;;9.31;100.00;95209.25;6308509;22;20074;-65
2023/10/23 07:05:58;;;;;;;4.20;3.78;;;;;;;9.41;100.00;95222.34;6308339;22;20003;-65
2023/10/23 07:08:23;;;;;;;6.10;3.35;;;;;;;9.45;100.00;95214.03;6308722;22;20045;-65
2023/10/23 07:10:49;;;;;;;4.97;3.05;;;;;;;9.49;100.00;95211.91;6308338;22;20006;-65
2023/10/23 07:13:15;;;;;;;5.30;2.92;;;;;;;9.50;100.00;95197.81;6308491;22;20003;-65
2023/10/23 07:15:40;;;;;;;3.88;2.70;;;;;;;9.49;100.00;95179.56;6307474;22;19999;-65
2023/10/23 07:18:05;;;;;;;5.00;3.28;;;;;;;9.48;100.00;95186.63;6308848;22;20294;-65
2023/10/23 07:20:31;;;;;;;5.32;3.20;;;;;;;9.54;100.00;95188.66;6308266;22;20003;-65
2023/10/23 07:22:56;;;;;;;3.45;3.22;;;;;;;9.65;100.00;95187.63;6307907;22;20002;-65
2023/10/23 07:25:22;;;;;;;6.65;3.42;;;;;;;9.64;100.00;95190.41;6308417;22;19999;-64
2023/10/23 07:27:49;;;;;;;6.72;3.60;;;;;;;9.57;100.00;95191.00;6308358;22;20152;-65
2023/10/23 07:30:15;;;;;;;5.25;3.10;;;;;;;9.54;100.00;95193.09;6307806;22;20006;-64
2023/10/23 07:32:40;;;;;;;4.60;3.33;;;;;;;9.55;100.00;95200.84;6307124;22;20003;-65
2023/10/23 07:35:08;;;;;;;3.53;3.15;;;;;;;9.56;100.00;95201.66;6307878;22;20070;-65
2023/10/23 07:37:33;;;;;;;6.82;5.47;;;;;;;9.55;100.00;95213.97;6280233;22;20011;-65
2023/10/23 07:40:04;;;;;;;6.65;5.22;;;;;;;9.56;100.00;95222.66;6307711;22;20009;-65
2023/10/23 07:42:30;;;;;;;5.07;4.20;;;;;;;9.55;100.00;95237.63;6281830;22;20007;-65
2023/10/23 07:44:55;;;;;;;4.20;3.53;;;;;;;9.60;100.00;95239.78;6307630;22;19999;-65
2023/10/23 07:47:21;;;;;;;4.28;3.22;;;;;;;9.60;100.00;95261.66;6307897;22;20519;-65
2023/10/23 07:49:46;;;;;;;4.15;3.40;;;;;;;9.64;100.00;95264.84;6280017;22;19999;-65
2023/10/23 07:52:11;;;;;;;4.18;3.50;;;;;;;9.76;100.00;95283.88;6254486;22;20006;-65
2023/10/23 07:54:37;;;;;;;3.50;3.20;;;;;;;9.78;100.00;95274.03;6306683;22;20007;-65
2023/10/23 07:57:02;;;;;;;5.95;3.53;;;;;;;9.69;100.00;95262.59;6306927;22;20027;-65
2023/10/23 07:59:28;;;;;;;7.65;6.15;;;;;;;9.69;100.00;95254.69;6307817;22;20003;-65
2023/10/23 08:01:53;;;;;;;6.82;5.20;;;;;;;9.75;100.00;95255.91;6308380;22;20013;-65
2023/10/23 08:04:19;;;;;;;3.40;3.10;;;;;;;9.75;100.00;95248.84;6310014;22;20006;-65
2023/10/23 08:06:45;;;;;;;7.00;3.00;;;;;;;9.81;100.00;95257.09;6282556;22;19999;-65
2023/10/23 08:09:11;;;;;;;4.30;2.95;;;;;;;9.74;100.00;95252.44;6282837;22;20070;-65
2023/10/23 08:11:36;;;;;;;6.05;3.97;;;;;;;9.71;100.00;95241.41;6309506;22;20006;-65
2023/10/23 08:14:02;;;;;;;11.70;10.30;;;;;;;9.70;100.00;95237.13;6310215;22;19995;-65
2023/10/23 08:16:27;;;;;;;6.70;6.07;;;;;;;9.75;100.00;95237.53;6310156;22;20010;-65
2023/10/23 08:18:53;;;;;;;5.88;5.28;;;;;;;9.80;100.00;95227.38;6281571;22;20007;-65
2023/10/23 08:21:18;;;;;;;4.75;3.70;;;;;;;9.89;100.00;95223.03;6282781;22;20006;-65
2023/10/23 08:23:46;;;;;;;9.95;3.47;;;;;;;9.98;100.00;95223.94;6308424;22;19995;-65
2023/10/23 08:26:12;;;;;;;4.28;3.33;;;;;;;10.08;100.00;95218.63;6309613;22;19999;-65
2023/10/23 08:28:37;;;;;;;6.15;4.03;;;;;;;10.17;100.00;95210.66;6309851;22;20006;-65
2023/10/23 08:31:03;;;;;;;5.30;3.33;;;;;;;10.24;100.00;95220.56;6309595;22;19999;-65
2023/10/23 08:33:28;;;;;;;4.25;3.10;;;;;;;10.32;100.00;95223.25;6281750;22;20452;-65
2023/10/23 08:35:54;;;;;;;4.75;3.50;;;;;;;10.39;100.00;95212.94;6308399;22;20033;-65
2023/10/23 08:38:19;;;;;;;4.72;3.10;;;;;;;10.45;100.00;95188.66;6309075;22;20000;-65
2023/10/23 08:40:45;;;;;;;5.00;2.80;;;;;;;10.52;100.00;95204.69;6309134;22;20031;-65
2023/10/23 08:43:10;;;;;;;4.35;2.90;;;;;;;10.63;100.00;95200.97;6309604;22;20004;-65
2023/10/23 08:45:38;;;;;;;8.50;4.68;;;;;;;10.84;100.00;95190.91;6309594;22;20022;-65
2023/10/23 08:48:03;;;;;;;7.00;4.53;;;;;;;10.92;100.00;95202.44;6282065;22;19999;-65
2023/10/23 08:50:29;;;;;;;5.28;3.10;;;;;;;11.06;100.00;95196.63;6308258;22;20487;-65
2023/10/23 08:52:59;;;;;;;5.28;4.68;;;;;;;11.23;100.00;95189.59;6309184;22;20003;-65
2023/10/23 08:55:27;;;;;;;4.60;2.70;;;;;;;11.28;100.00;95197.88;6255538;22;20019;-65
2023/10/23 08:57:54;;;;;;;5.40;2.70;;;;;;;11.38;100.00;95212.72;6309385;22;20003;-65
2023/10/23 09:00:24;;;;;;;3.63;2.83;;;;;;;11.43;100.00;95205.16;6309167;22;19995;-65
2023/10/23 09:02:52;;;;;;;4.00;2.80;;;;;;;11.49;100.00;95215.06;6307199;22;19995;-65
2023/10/23 09:05:19;;;;;;;4.15;2.63;;;;;;;11.50;100.00;95229.09;6309029;22;20424;-65
2023/10/23 09:07:45;;;;;;;5.60;2.70;;;;;;;11.52;100.00;95240.28;6308626;22;20349;-65
2023/10/23 09:10:10;;;;;;;4.53;3.40;;;;;;;11.43;100.00;95236.78;6281079;22;20057;-65
2023/10/23 09:12:37;;;;;;;5.93;4.45;;;;;;;11.31;100.00;95228.34;6308593;22;20062;-65
2023/10/23 09:15:20;;;;;;;6.97;4.22;;;;;;;11.30;100.00;95238.06;6308566;22;20006;-65
2023/10/23 09:17:46;;;;;;;3.58;3.25;;;;;;;11.41;100.00;95231.69;6309118;22;20424;-65
2023/10/23 09:20:24;;;;;;;4.88;3.15;;;;;;;11.45;100.00;95225.13;6308801;22;20010;-65
2023/10/23 09:22:53;;;;;;;4.03;3.03;;;;;;;11.57;100.00;95227.44;6308835;22;20006;-65
2023/10/23 09:25:24;;;;;;;5.88;2.63;;;;;;;11.72;100.00;95219.78;6309317;22;20079;-65
2023/10/23 09:27:50;;;;;;;4.88;2.78;;;;;;;11.75;100.00;95224.72;6309313;22;19999;-65
2023/10/23 09:30:21;;;;;;;4.35;3.25;;;;;;;11.90;100.00;95230.19;6307752;22;20070;-65
2023/10/23 09:32:55;;;;;;;3.83;3.03;;;;;;;12.02;100.00;95225.47;6307944;22;20006;-65
2023/10/23 09:35:24;;;;;;;6.05;3.45;;;;;;;12.04;100.00;95232.22;6307911;22;20003;-65
2023/10/23 09:37:50;;;;;;;4.03;3.47;;;;;;;12.26;100.00;95234.41;6308671;22;20053;-65
2023/10/23 09:40:18;;;;;;;7.07;3.88;;;;;;;12.22;100.00;95252.38;6308709;22;19999;-65
2023/10/23 09:42:44;;;;;;;6.13;4.00;;;;;;;12.17;100.00;95259.97;6308229;22;20619;-65
2023/10/23 09:45:10;;;;;;;4.05;3.65;;;;;;;12.16;100.00;95282.06;6308396;22;19999;-65
2023/10/23 09:47:36;;;;;;;4.07;3.65;;;;;;;12.19;100.00;95257.97;6281269;22;19999;-65
2023/10/23 09:50:05;;;;;;;4.13;3.25;;;;;;;12.27;100.00;95268.56;6307672;22;19995;-65
2023/10/23 09:52:33;;;;;;;5.65;3.85;;;;;;;12.36;100.00;95269.38;6308971;22;20005;-66
2023/10/23 09:55:01;;;;;;;7.97;4.15;;;;;;;12.44;100.00;95265.94;6308552;22;20011;-65
2023/10/23 09:57:32;;;;;;;11.27;4.40;;;;;;;12.49;100.00;95268.09;6308641;22;20003;-65
2023/10/23 10:00:01;;;;;;;5.40;3.20;;;;;;;12.62;100.00;95260.50;6308613;22;20003;-65
2023/10/23 10:02:33;;;;;;;11.32;6.65;;;;;;;12.66;100.00;95282.09;6308696;22;20080;-65
2023/10/23 10:05:05;;;;;;;8.38;3.88;;;;;;;12.68;100.00;95277.47;6279926;22;20007;-65
2023/10/23 10:07:55;;;;;;;11.77;9.23;;;;;;;12.60;100.00;95279.13;6307540;22;20000;-65
2023/10/23 10:10:22;;;;;;;4.05;3.60;;;;;;;12.67;100.00;95287.22;6307743;22;20007;-65
2023/10/23 10:12:48;;;;;;;6.28;3.53;;;;;;;12.61;100.00;95293.19;6307236;22;20006;-65
2023/10/23 10:15:14;;;;;;;5.05;2.97;;;;;;;12.62;100.00;95292.19;6280840;22;19999;-65
2023/10/23 10:17:39;;;;;;;12.13;9.35;;;;;;;12.76;100.00;95285.44;6280439;22;20436;-65
2023/10/23 10:20:08;;;;;;;6.35;3.78;;;;;;;12.67;100.00;95275.84;6307767;22;19991;-65
2023/10/23 10:22:35;;;;;;;4.22;3.15;;;;;;;12.59;100.00;95277.50;6281030;22;19999;-65
2023/10/23 10:25:04;;;;;;;20.67;14.00;;;;;;;12.58;100.00;95273.19;6306391;22;20413;-65
2023/10/23 10:27:30;;;;;;;5.18;3.25;;;;;;;12.69;100.00;95258.84;6281421;22;19999;-65
2023/10/23 10:29:55;;;;;;;7.65;5.30;;;;;;;12.86;100.00;95246.44;6307660;22;20048;-65
2023/10/23 10:32:23;;;;;;;7.80;5.53;;;;;;;12.91;100.00;95256.50;6307796;22;20425;-65
2023/10/23 10:34:52;;;;;;;6.60;3.80;;;;;;;12.82;100.00;95255.69;6306549;22;20003;-65
2023/10/23 10:37:22;;;;;;;5.00;2.88;;;;;;;12.77;100.00;95260.66;6308009;22;20003;-66
2023/10/23 10:39:50;;;;;;;3.20;2.75;;;;;;;12.94;100.00;95250.09;6280548;22;20009;-66
2023/10/23 10:42:20;;;;;;;8.02;5.90;;;;;;;12.90;100.00;95258.31;6307384;22;20006;-65
2023/10/23 10:45:00;;;;;;;5.15;3.95;;;;;;;13.12;100.00;95226.91;6306485;22;20022;-64
2023/10/23 10:47:45;;;;;;;13.40;10.13;;;;;;;13.21;100.00;95226.91;6281301;22;20030;-65
2023/10/23 10:50:11;;;;;;;6.65;4.57;;;;;;;13.14;100.00;95237.31;6307711;22;20068;-65
2023/10/23 10:52:38;;;;;;;4.70;2.85;;;;;;;13.18;100.00;95244.75;6281013;22;19999;-65
2023/10/23 10:55:13;;;;;;;5.78;3.78;;;;;;;13.28;100.00;95241.91;6307488;22;20003;-65
2023/10/23 10:57:44;;;;;;;4.40;3.00;;;;;;;13.36;100.00;95237.59;6279497;22;20007;-65
2023/10/23 11:00:10;;;;;;;4.45;2.97;;;;;;;13.36;100.00;95217.25;6307959;22;19995;-66
2023/10/23 11:02:37;;;;;;;3.80;3.42;;;;;;;13.44;100.00;95219.06;6307001;22;20046;-66
2023/10/23 11:05:12;;;;;;;3.67;2.67;;;;;;;13.42;100.00;95215.75;6307628;22;19999;-65
2023/10/23 11:07:38;;;;;;;3.90;3.50;;;;;;;13.41;100.00;95220.22;6308579;22;20434;-64
2023/10/23 11:10:05;;;;;;;8.95;3.80;;;;;;;13.42;100.00;95219.22;6307956;22;20375;-66
2023/10/23 11:12:30;;;;;;;5.15;3.58;;;;;;;13.45;100.00;95218.91;6306989;22;20010;-66
2023/10/23 11:14:56;;;;;;;5.20;3.08;;;;;;;13.53;100.00;95217.22;6307337;22;19999;-66
2023/10/23 11:17:23;;;;;;;7.47;3.20;;;;;;;13.59;100.00;95208.59;6306884;22;20003;-66
2023/10/23 11:19:48;;;;;;;3.30;2.60;;;;;;;13.65;100.00;95194.69;6307912;22;20344;-66
2023/10/23 11:22:15;;;;;;;8.30;3.30;;;;;;;13.69;100.00;95209.22;6253018;22;20005;-66
2023/10/23 11:24:41;;;;;;;8.02;2.50;;;;;;;13.82;100.00;95189.31;6279635;22;20006;-66
2023/10/23 11:27:07;;;;;;;5.85;4.70;;;;;;;13.75;100.00;95192.63;6306556;22;20406;-66